Terminal Aerodrome Forecast
Issued by NWS Paducah, KY

Home | Current Version | Previous Version | Text Only | Print | Product List | Glossary On
Versions: 1 2 3 4 5 6 7 8 9 10 11 12 13 14 15 16 17 18 19
000
FTUS43 KPAH 240400 AAB
TAFEVV
TAF AMD
KEVV 240401Z 2404/2424 34007KT 3SM -RA BR OVC004
      TEMPO 2405/2409 1 1/2SM BR OVC002
     FM241500 27013KT P6SM OVC020=

USA.gov is the U.S. government's official web portal to all federal, state and local government web resources and services.